createdAt,value
2022-10-03T00:03:25.063Z,12.15
2022-10-03T00:08:56.946Z,12.07
2022-10-03T00:14:28.539Z,11.97
2022-10-03T00:20:00.342Z,11.82
2022-10-03T00:25:32.286Z,11.65
2022-10-03T00:31:04.091Z,11.50
2022-10-03T00:42:05.365Z,11.26
2022-10-03T00:47:37.039Z,11.16
2022-10-03T00:53:08.855Z,11.07
2022-10-03T00:58:40.600Z,10.98
2022-10-03T01:04:12.617Z,10.89
2022-10-03T01:09:44.430Z,10.80
2022-10-03T01:15:16.316Z,10.72
2022-10-03T01:20:48.140Z,10.65
2022-10-03T01:26:19.920Z,10.59
2022-10-03T01:31:51.639Z,10.52
2022-10-03T01:37:23.574Z,10.45
2022-10-03T01:42:55.200Z,10.38
2022-10-03T01:48:27.060Z,10.31
2022-10-03T01:53:58.960Z,10.24
2022-10-03T01:59:30.439Z,10.20
2022-10-03T02:05:02.512Z,10.17
2022-10-03T02:10:34.364Z,10.15
2022-10-03T02:16:06.036Z,10.15
2022-10-03T02:21:37.911Z,10.17
2022-10-03T02:32:39.081Z,10.20
2022-10-03T02:38:10.807Z,10.18
2022-10-03T02:43:42.593Z,10.13
2022-10-03T02:49:14.345Z,10.06
2022-10-03T03:00:15.660Z,9.89
2022-10-03T03:05:47.386Z,9.80
2022-10-03T03:11:19.175Z,9.71
2022-10-03T03:16:50.895Z,9.62
2022-10-03T03:22:22.810Z,9.55
2022-10-03T03:27:54.792Z,9.48
2022-10-03T03:33:26.601Z,9.42
2022-10-03T03:38:58.349Z,9.37
2022-10-03T03:44:30.358Z,9.32
2022-10-03T03:50:01.856Z,9.29
2022-10-03T03:55:33.583Z,9.26
2022-10-03T04:01:05.708Z,9.24
2022-10-03T04:06:37.289Z,9.23
2022-10-03T04:17:38.717Z,9.23
2022-10-03T04:23:10.178Z,9.23
2022-10-03T04:28:42.063Z,9.23
2022-10-03T04:34:13.985Z,9.22
2022-10-03T04:39:45.708Z,9.20
2022-10-03T04:45:17.279Z,9.17
2022-10-03T04:56:18.241Z,9.10
2022-10-03T04:58:30.763Z,8.65
2022-10-03T05:04:02.085Z,8.83
2022-10-03T05:11:55.369Z,8.71
2022-10-03T05:17:26.697Z,8.89
2022-10-03T05:28:28.219Z,9.07
2022-10-03T05:33:59.424Z,9.11
2022-10-03T05:39:30.772Z,9.15
2022-10-03T05:45:02.255Z,9.21
2022-10-03T05:50:33.595Z,9.35
2022-10-03T05:56:05.076Z,9.62
2022-10-03T06:07:06.041Z,10.23
2022-10-03T06:12:37.773Z,10.36
2022-10-03T06:18:09.470Z,10.40
2022-10-03T06:23:40.946Z,10.42
2022-10-03T06:29:13.194Z,10.47
2022-10-03T06:34:44.572Z,10.66
2022-10-03T06:40:16.039Z,10.99
2022-10-03T06:56:50.071Z,11.66
2022-10-03T07:02:20.519Z,11.67
2022-10-03T07:07:51.844Z,11.74
2022-10-03T07:18:54.996Z,12.08
2022-10-03T07:24:26.289Z,12.23
2022-10-03T07:29:57.584Z,12.31
2022-10-03T07:35:28.766Z,12.31
2022-10-03T07:41:00.213Z,12.29
2022-10-03T07:46:31.620Z,12.26
2022-10-03T07:52:02.809Z,12.21
2022-10-03T07:57:34.249Z,12.16
2022-10-03T08:03:05.692Z,12.14
2022-10-03T08:08:39.441Z,12.19
2022-10-03T08:19:42.392Z,12.43
2022-10-03T08:36:16.453Z,12.97
2022-10-03T08:41:47.592Z,13.10
2022-10-03T08:49:39.627Z,13.11
2022-10-03T09:00:42.408Z,13.54
2022-10-03T09:06:13.726Z,13.84
2022-10-03T09:11:45.244Z,14.21
2022-10-03T09:22:46.195Z,14.69
2022-10-03T09:28:19.164Z,14.81
2022-10-03T09:33:48.700Z,14.88
2022-10-03T09:39:20.150Z,14.99
2022-10-03T09:44:51.525Z,15.14
2022-10-03T09:50:23.237Z,15.30
2022-10-03T09:55:54.509Z,15.46
2022-10-03T10:01:25.914Z,15.58
2022-10-03T10:06:57.192Z,15.69
2022-10-03T10:12:28.463Z,15.72
2022-10-03T10:17:59.911Z,15.74
2022-10-03T10:23:31.169Z,15.81
2022-10-03T10:29:02.536Z,16.01
2022-10-03T10:34:33.856Z,16.24
2022-10-03T10:40:05.047Z,16.44
2022-10-03T10:45:36.330Z,16.63
2022-10-03T10:51:07.770Z,16.75
2022-10-03T10:56:39.499Z,16.81
2022-10-03T11:07:40.305Z,16.56
2022-10-03T11:13:11.911Z,16.43
2022-10-03T11:18:43.077Z,16.34
2022-10-03T11:24:14.439Z,16.30
2022-10-03T11:29:45.798Z,16.35
2022-10-03T11:35:17.064Z,16.48
2022-10-03T11:40:48.439Z,16.68
2022-10-03T11:46:22.541Z,16.88
2022-10-03T11:51:53.975Z,16.86
2022-10-03T12:02:58.791Z,16.67
2022-10-03T12:08:30.082Z,16.74
2022-10-03T12:14:01.296Z,16.79
2022-10-03T12:19:32.914Z,16.84
2022-10-03T12:25:04.387Z,16.81
2022-10-03T12:30:35.723Z,16.85
2022-10-03T12:36:07.112Z,17.14
2022-10-03T12:41:38.770Z,17.42
2022-10-03T12:52:41.733Z,17.53
2022-10-03T12:58:13.537Z,16.98
2022-10-03T13:03:45.075Z,16.52
2022-10-03T13:09:16.463Z,16.31
2022-10-03T13:14:47.647Z,16.20
2022-10-03T13:20:19.429Z,16.00
2022-10-03T13:25:50.889Z,15.88
2022-10-03T13:31:22.377Z,15.94
2022-10-03T13:36:53.535Z,16.15
2022-10-03T13:42:24.822Z,16.29
2022-10-03T13:53:25.632Z,16.02
2022-10-03T13:58:57.483Z,15.82
2022-10-03T14:04:28.680Z,15.68
2022-10-03T14:10:01.972Z,15.56
2022-10-03T14:15:33.431Z,15.43
2022-10-03T14:23:26.061Z,15.00
2022-10-03T14:34:28.856Z,15.23
2022-10-03T14:40:00.269Z,15.33
2022-10-03T14:45:32.012Z,15.43
2022-10-03T14:51:03.378Z,15.46
2022-10-03T14:56:34.825Z,15.50
2022-10-03T15:02:08.990Z,15.53
2022-10-03T15:07:40.717Z,15.49
2022-10-03T15:13:12.428Z,15.36
2022-10-03T15:18:43.897Z,15.20
2022-10-03T15:24:15.625Z,15.08
2022-10-03T15:29:47.310Z,15.00
2022-10-03T15:35:18.786Z,14.96
2022-10-03T15:40:50.147Z,14.93
2022-10-03T15:48:46.642Z,14.38
2022-10-03T15:54:13.481Z,14.53
2022-10-03T15:59:46.662Z,14.54
2022-10-03T16:05:18.180Z,14.44
2022-10-03T16:10:49.589Z,14.30
2022-10-03T16:16:21.344Z,14.16
2022-10-03T16:21:52.726Z,14.06
2022-10-03T16:27:23.927Z,13.92
2022-10-03T16:32:55.478Z,13.75
2022-10-03T16:43:56.549Z,13.46
2022-10-03T16:49:28.003Z,13.36
2022-10-03T16:54:59.775Z,13.26
2022-10-03T17:00:31.529Z,13.13
2022-10-03T17:06:03.440Z,13.01
2022-10-03T17:17:03.746Z,12.78
2022-10-03T17:22:35.447Z,12.66
2022-10-03T17:28:06.810Z,12.53
2022-10-03T17:33:38.096Z,12.38
2022-10-03T17:39:09.277Z,12.21
2022-10-03T17:44:44.103Z,12.02
2022-10-03T17:50:11.986Z,11.83
2022-10-03T17:55:43.339Z,11.64
2022-10-03T18:06:44.195Z,11.29
2022-10-03T18:12:15.532Z,11.13
2022-10-03T18:17:46.997Z,10.97
2022-10-03T18:23:36.718Z,10.83
2022-10-03T18:28:50.137Z,10.69
2022-10-03T18:34:21.407Z,10.55
2022-10-03T18:39:54.600Z,10.44
2022-10-03T18:45:24.149Z,10.33
2022-10-03T18:50:55.538Z,10.22
2022-10-03T18:56:27.298Z,10.12
2022-10-03T19:07:28.100Z,9.97
2022-10-03T19:12:59.545Z,9.91
2022-10-03T19:18:31.407Z,9.84
2022-10-03T19:24:03.272Z,9.77
2022-10-03T19:29:34.931Z,9.69
2022-10-03T19:35:06.349Z,9.61
2022-10-03T19:40:37.721Z,9.53
2022-10-03T19:46:09.533Z,9.45
2022-10-03T19:51:41.060Z,9.37
2022-10-03T19:57:12.211Z,9.29
2022-10-03T20:02:44.058Z,9.21
2022-10-03T20:08:15.730Z,9.13
2022-10-03T20:13:47.432Z,9.07
2022-10-03T20:19:18.707Z,9.00
2022-10-03T20:24:50.112Z,8.93
2022-10-03T20:30:21.376Z,8.86
2022-10-03T20:35:52.591Z,8.79
2022-10-03T20:41:23.999Z,8.72
2022-10-03T20:46:55.279Z,8.65
2022-10-03T20:52:26.554Z,8.57
2022-10-03T20:57:58.129Z,8.50
2022-10-03T21:03:29.806Z,8.44
2022-10-03T21:20:03.828Z,8.28
2022-10-03T21:25:35.729Z,8.23
2022-10-03T21:31:07.167Z,8.17
2022-10-03T21:36:39.138Z,8.12
2022-10-03T21:42:10.786Z,8.07
2022-10-03T21:47:42.462Z,8.01
2022-10-03T21:53:14.266Z,7.95
2022-10-03T21:58:45.981Z,7.90
2022-10-03T22:09:49.562Z,7.79
2022-10-03T22:20:52.948Z,7.68
2022-10-03T22:26:24.568Z,7.63
2022-10-03T22:31:56.377Z,7.58
2022-10-03T22:37:28.094Z,7.52
2022-10-03T22:42:59.852Z,7.46
2022-10-03T22:48:31.712Z,7.41
2022-10-03T22:54:03.399Z,7.37
2022-10-03T22:59:35.165Z,7.32
2022-10-03T23:10:38.727Z,7.24
2022-10-03T23:16:10.765Z,7.20
2022-10-03T23:21:42.401Z,7.15
2022-10-03T23:27:13.991Z,7.09
2022-10-03T23:32:45.702Z,7.03
2022-10-03T23:43:49.054Z,6.94
2022-10-03T23:49:21.030Z,6.91
2022-10-03T23:54:52.820Z,6.88
